This is the latest recevied weather packets stored in our database for station/object HK6REC-20. If no packets are shown the sender has not sent any weather packets the latest 10 day(s).
| Time | Temp. | Humidity | Pressure | Rain* | Wind** | Luminosity | Snow |
|---|---|---|---|---|---|---|---|
| 1777812793 | 17.22° C | 95% | 1016 hPa | 0 mm | - | - | - |
| 1777811592 | 17.22° C | 96% | 1017 hPa | 0 mm | - | - | - |
| 1777810391 | 17.22° C | 97% | 1017 hPa | 0 mm | - | - | - |
| 1777809190 | 17.78° C | 98% | 1016 hPa | 0 mm | - | - | - |
| 1777807990 | 17.78° C | 98% | 1017 hPa | 0 mm | - | - | - |
| 1777806788 | 17.78° C | 98% | 1016 hPa | 0 mm | - | - | - |
| 1777805588 | 17.78° C | 98% | 1015 hPa | 0 mm | - | - | - |
| 1777804386 | 17.78° C | 98% | 1015 hPa | 0 mm | - | - | - |
| 1777803186 | 17.78° C | 98% | 1015 hPa | 0 mm | - | - | - |
| 1777801985 | 17.22° C | 97% | 1015 hPa | 0 mm | - | - | - |
| 1777800784 | 16.11° C | 94% | 1015 hPa | 0 mm | - | - | - |
| 1777799583 | 16.67° C | 95% | 1016 hPa | 0 mm | - | - | - |
| 1777798382 | 16.67° C | 95% | 1016 hPa | 0 mm | - | - | - |
| 1777797181 | 17.22° C | 97% | 1016 hPa | 0 mm | - | - | - |
| 1777795980 | 16.67° C | 95% | 1016 hPa | 0 mm | - | - | - |
| 1777794779 | 15° C | 90% | 1015 hPa | 0 mm | - | - | - |
| 1777793578 | 15° C | 90% | 1017 hPa | 0 mm | - | - | - |
| 1777792377 | 15° C | 90% | 1016 hPa | 0 mm | - | - | - |
| 1777791176 | 15° C | 90% | 1016 hPa | 0 mm | - | - | - |
| 1777789975 | 15° C | 90% | 1018 hPa | 0 mm | - | - | - |
| 1777788774 | 15° C | 90% | 1017 hPa | 0 mm | - | - | - |
| 1777787573 | 15° C | 90% | 1017 hPa | 0 mm | - | - | - |
| 1777786372 | 15° C | 90% | 1019 hPa | 0 mm | - | - | - |
| 1777785171 | 15° C | 90% | 1018 hPa | 0 mm | - | - | - |
| 1777783970 | 15° C | 90% | 1017 hPa | 0 mm | - | - | - |
* Rain latest hour (hover to see other rain measurements)
** Current wind speed in m/s (hover to see current wind gust speed)